createdAt,value
2022-11-01T00:00:13.627Z,0.00
2022-11-01T00:01:13.648Z,0.00
2022-11-01T00:02:13.686Z,0.00
2022-11-01T00:03:13.615Z,0.00
2022-11-01T00:04:13.603Z,0.00
2022-11-01T00:05:13.609Z,0.00
2022-11-01T00:06:13.636Z,0.00
2022-11-01T00:07:13.614Z,0.00
2022-11-01T00:08:13.615Z,0.00
2022-11-01T00:09:13.587Z,0.00
2022-11-01T00:10:13.627Z,0.00
2022-11-01T00:11:13.613Z,0.00
2022-11-01T00:12:13.605Z,0.00
2022-11-01T00:13:13.608Z,0.00
2022-11-01T00:14:13.600Z,0.00
2022-11-01T00:15:13.680Z,0.00
2022-11-01T00:16:13.604Z,0.00
2022-11-01T00:17:13.601Z,0.00
2022-11-01T00:18:13.618Z,0.00
2022-11-01T00:19:13.604Z,0.00
2022-11-01T00:20:13.640Z,0.00
2022-11-01T00:21:13.616Z,0.00
2022-11-01T00:22:13.618Z,0.00
2022-11-01T00:23:13.630Z,0.00
2022-11-01T00:24:13.599Z,0.00
2022-11-01T00:25:13.601Z,0.00
2022-11-01T00:26:13.644Z,0.00
2022-11-01T00:27:13.601Z,0.00
2022-11-01T00:28:13.626Z,0.00
2022-11-01T00:29:13.603Z,0.00
2022-11-01T00:30:13.633Z,0.00
2022-11-01T00:31:13.599Z,0.00
2022-11-01T00:32:13.601Z,0.00
2022-11-01T00:33:13.624Z,0.00
2022-11-01T00:34:13.628Z,0.00
2022-11-01T00:35:13.596Z,0.00
2022-11-01T00:36:13.615Z,0.00
2022-11-01T00:37:13.612Z,0.00
2022-11-01T00:38:13.619Z,0.00
2022-11-01T00:39:13.625Z,0.00
2022-11-01T00:40:13.601Z,0.00
2022-11-01T00:41:13.619Z,0.00
2022-11-01T00:42:13.620Z,0.00
2022-11-01T00:43:13.681Z,0.00
2022-11-01T00:44:13.609Z,0.00
2022-11-01T00:45:13.608Z,0.00
2022-11-01T00:46:13.612Z,0.00
2022-11-01T00:47:13.607Z,0.00
2022-11-01T00:48:13.615Z,0.00
2022-11-01T00:49:13.626Z,0.00
2022-11-01T00:50:13.627Z,0.00
2022-11-01T00:51:13.598Z,0.00
2022-11-01T00:52:13.621Z,0.00
2022-11-01T00:53:13.609Z,0.00
2022-11-01T00:54:13.629Z,0.00
2022-11-01T00:55:13.617Z,0.00
2022-11-01T00:56:13.620Z,0.00
2022-11-01T00:57:13.604Z,0.00
2022-11-01T00:58:13.622Z,0.00
2022-11-01T00:59:13.631Z,0.00
2022-11-01T01:00:13.598Z,0.00
2022-11-01T01:01:13.776Z,0.00
2022-11-01T01:02:13.775Z,0.00
2022-11-01T01:03:13.599Z,0.00
2022-11-01T01:04:13.614Z,0.00
2022-11-01T01:05:13.625Z,0.00
2022-11-01T01:06:13.605Z,0.00
2022-11-01T01:07:13.625Z,0.00
2022-11-01T01:08:13.602Z,0.00
2022-11-01T01:09:13.623Z,0.00
2022-11-01T01:10:13.608Z,0.00
2022-11-01T01:11:13.638Z,0.00
2022-11-01T01:12:13.607Z,0.00
2022-11-01T01:13:13.614Z,0.00
2022-11-01T01:14:13.619Z,0.00
2022-11-01T01:15:13.597Z,0.00
2022-11-01T01:16:13.613Z,0.00
2022-11-01T01:17:13.620Z,0.00
2022-11-01T01:18:13.610Z,0.00
2022-11-01T01:19:13.619Z,0.00
2022-11-01T01:20:13.616Z,0.00
2022-11-01T01:21:13.609Z,0.00
2022-11-01T01:22:13.640Z,0.00
2022-11-01T01:23:13.605Z,0.00
2022-11-01T01:24:13.610Z,0.00
2022-11-01T01:25:13.624Z,0.00
2022-11-01T01:26:13.600Z,0.00
2022-11-01T01:27:13.618Z,0.00
2022-11-01T01:28:13.614Z,0.00
2022-11-01T01:29:13.634Z,0.00
2022-11-01T01:30:13.609Z,0.00
2022-11-01T01:31:13.597Z,0.00
2022-11-01T01:32:13.625Z,0.00
2022-11-01T01:33:13.618Z,0.00
2022-11-01T01:34:13.618Z,0.00
2022-11-01T01:35:13.616Z,0.00
2022-11-01T01:36:13.611Z,0.00
2022-11-01T01:37:13.616Z,0.00
2022-11-01T01:38:13.613Z,0.00
2022-11-01T01:39:13.609Z,0.00
2022-11-01T01:40:13.624Z,0.00
2022-11-01T01:41:13.636Z,0.00
2022-11-01T01:42:13.625Z,0.00
2022-11-01T01:43:13.596Z,0.00
2022-11-01T01:44:13.620Z,0.00
2022-11-01T01:45:13.614Z,0.00
2022-11-01T01:46:21.174Z,0.00
2022-11-01T01:47:13.647Z,0.00
2022-11-01T01:48:13.630Z,0.00
2022-11-01T01:49:13.603Z,0.00
2022-11-01T01:50:13.605Z,0.00
2022-11-01T01:51:13.616Z,0.00
2022-11-01T01:52:13.631Z,0.00
2022-11-01T01:53:13.609Z,0.00
2022-11-01T01:54:13.633Z,0.00
2022-11-01T01:55:13.614Z,0.00
2022-11-01T01:56:13.614Z,0.00
2022-11-01T01:57:13.631Z,0.00
2022-11-01T01:58:13.615Z,0.00
2022-11-01T01:59:13.603Z,0.00
2022-11-01T02:00:13.604Z,0.00
2022-11-01T02:01:13.775Z,0.00
2022-11-01T02:02:13.714Z,0.00
2022-11-01T02:03:13.619Z,0.00
2022-11-01T02:04:13.601Z,0.00
2022-11-01T02:05:13.612Z,0.00
2022-11-01T02:06:13.688Z,0.00
2022-11-01T02:07:13.613Z,0.00
2022-11-01T02:08:13.632Z,0.00
2022-11-01T02:09:13.633Z,0.00
2022-11-01T02:10:13.612Z,0.00
2022-11-01T02:11:13.616Z,0.00
2022-11-01T02:12:13.623Z,0.00
2022-11-01T02:13:13.622Z,0.00
2022-11-01T02:14:13.619Z,0.00
2022-11-01T02:15:13.672Z,0.00
2022-11-01T02:16:13.615Z,0.00
2022-11-01T02:17:13.622Z,0.00
2022-11-01T02:18:13.609Z,0.00
2022-11-01T02:19:13.619Z,0.00
2022-11-01T02:20:13.618Z,0.00
2022-11-01T02:21:13.608Z,0.00
2022-11-01T02:22:13.625Z,0.00
2022-11-01T02:23:13.608Z,0.00
2022-11-01T02:24:13.638Z,0.00
2022-11-01T02:25:13.607Z,0.00
2022-11-01T02:26:13.614Z,0.00
2022-11-01T02:27:13.615Z,0.00
2022-11-01T02:28:13.631Z,0.00
2022-11-01T02:29:13.617Z,0.00
2022-11-01T02:30:13.635Z,0.00
2022-11-01T02:31:13.663Z,0.00
2022-11-01T02:32:13.610Z,0.00
2022-11-01T02:33:13.642Z,0.00
2022-11-01T02:34:13.609Z,0.00
2022-11-01T02:35:13.620Z,0.00
2022-11-01T02:36:13.616Z,0.00
2022-11-01T02:37:13.604Z,0.00
2022-11-01T02:38:13.623Z,0.00
2022-11-01T02:40:13.629Z,0.00
2022-11-01T02:41:13.614Z,0.00
2022-11-01T02:42:13.612Z,0.00
2022-11-01T02:43:13.606Z,0.00
2022-11-01T02:44:13.650Z,0.00
2022-11-01T02:45:13.620Z,0.00
2022-11-01T02:46:13.659Z,0.00
2022-11-01T02:47:13.618Z,0.00
2022-11-01T02:48:13.617Z,0.00
2022-11-01T02:49:13.617Z,0.00
2022-11-01T02:50:13.601Z,0.00
2022-11-01T02:51:13.612Z,0.00
2022-11-01T02:52:13.611Z,0.00
2022-11-01T02:53:13.608Z,0.00
2022-11-01T02:54:13.606Z,0.00
2022-11-01T02:55:13.616Z,0.00
2022-11-01T02:56:13.634Z,0.00
2022-11-01T02:57:13.616Z,0.00
2022-11-01T02:58:13.629Z,0.00
2022-11-01T02:59:13.619Z,0.00
2022-11-01T03:00:13.607Z,0.00
2022-11-01T03:01:13.737Z,0.00
2022-11-01T03:02:13.681Z,0.00
2022-11-01T03:03:13.618Z,0.00
2022-11-01T03:04:13.609Z,0.00
2022-11-01T03:05:13.615Z,0.00
2022-11-01T03:06:13.617Z,0.00
2022-11-01T03:07:13.649Z,0.00
2022-11-01T03:08:13.716Z,0.00
2022-11-01T03:09:13.624Z,0.00
2022-11-01T03:10:13.620Z,0.00
2022-11-01T03:11:13.652Z,0.00
2022-11-01T03:12:13.629Z,0.00
2022-11-01T03:13:13.743Z,0.00
2022-11-01T03:14:13.609Z,0.00
2022-11-01T03:15:13.619Z,0.00
2022-11-01T03:16:13.643Z,0.00
2022-11-01T03:17:13.649Z,0.00
2022-11-01T03:18:13.610Z,0.00
2022-11-01T03:19:13.636Z,0.00
2022-11-01T03:20:13.625Z,0.00
2022-11-01T03:21:13.638Z,0.00
2022-11-01T03:22:13.615Z,0.00
2022-11-01T03:23:13.621Z,0.00
2022-11-01T03:24:13.616Z,0.00
2022-11-01T03:25:13.655Z,0.00
2022-11-01T03:26:13.642Z,0.00
2022-11-01T03:27:13.618Z,0.00
2022-11-01T03:28:13.613Z,0.00
2022-11-01T03:29:13.620Z,0.00
2022-11-01T03:30:13.627Z,0.00
2022-11-01T03:31:13.629Z,0.00
2022-11-01T03:32:13.612Z,0.00
2022-11-01T03:33:13.641Z,0.00
2022-11-01T03:34:13.621Z,0.00
2022-11-01T03:35:13.642Z,0.00
2022-11-01T03:36:14.818Z,0.00
2022-11-01T03:37:13.629Z,0.00
2022-11-01T03:38:13.623Z,0.00
2022-11-01T03:39:13.617Z,0.00
2022-11-01T03:40:13.658Z,0.00
2022-11-01T03:41:13.656Z,0.00
2022-11-01T03:42:13.675Z,0.00
2022-11-01T03:43:13.654Z,0.00
2022-11-01T03:44:13.611Z,0.00
2022-11-01T03:45:13.670Z,0.00
2022-11-01T03:46:13.612Z,0.00
2022-11-01T03:47:13.650Z,0.00
2022-11-01T03:48:13.630Z,0.00
2022-11-01T03:49:13.619Z,0.00
2022-11-01T03:50:13.608Z,0.00
2022-11-01T03:51:13.608Z,0.00
2022-11-01T03:52:13.636Z,0.00
2022-11-01T03:53:13.617Z,0.00
2022-11-01T03:54:13.621Z,0.00
2022-11-01T03:55:13.608Z,0.00
2022-11-01T03:56:13.610Z,0.00
2022-11-01T03:57:13.814Z,0.00
2022-11-01T03:59:52.994Z,0.00
2022-11-01T04:00:52.968Z,0.00
2022-11-01T04:01:53.133Z,0.00
2022-11-01T04:03:00.833Z,0.00
2022-11-01T04:04:01.165Z,0.00
2022-11-01T04:04:52.943Z,0.00
2022-11-01T04:05:52.931Z,0.00
2022-11-01T04:06:52.948Z,0.00
2022-11-01T04:08:01.203Z,0.00
2022-11-01T04:09:01.484Z,0.00
2022-11-01T04:09:52.930Z,0.00
2022-11-01T04:11:01.284Z,0.00
2022-11-01T04:11:52.939Z,0.00
2022-11-01T04:12:52.938Z,0.00
2022-11-01T04:13:52.948Z,0.00
2022-11-01T04:14:52.956Z,0.00
2022-11-01T04:15:52.934Z,0.00
2022-11-01T04:16:52.927Z,0.00
2022-11-01T04:17:52.929Z,0.00
2022-11-01T04:18:52.923Z,0.00
2022-11-01T04:19:52.925Z,0.00
2022-11-01T04:20:52.945Z,0.00
2022-11-01T04:21:52.932Z,0.00
2022-11-01T04:22:52.930Z,0.00
2022-11-01T04:23:52.940Z,0.00
2022-11-01T04:24:52.959Z,0.00
2022-11-01T04:25:52.933Z,0.00
2022-11-01T04:26:52.931Z,0.00
2022-11-01T04:27:52.919Z,0.00
2022-11-01T04:28:52.926Z,0.00
2022-11-01T04:29:52.932Z,0.00
2022-11-01T04:30:52.947Z,0.00
2022-11-01T04:31:52.925Z,0.00
2022-11-01T04:32:52.924Z,0.00
2022-11-01T04:33:52.923Z,0.00
2022-11-01T04:34:53.037Z,0.00
2022-11-01T04:35:52.939Z,0.00
2022-11-01T04:36:52.918Z,0.00
2022-11-01T04:37:52.924Z,0.00
2022-11-01T04:38:52.933Z,0.00
2022-11-01T04:39:52.923Z,0.00
2022-11-01T04:40:52.917Z,0.00
2022-11-01T04:41:52.919Z,0.00
2022-11-01T04:42:52.925Z,0.00
2022-11-01T04:43:52.943Z,0.00
2022-11-01T04:44:52.936Z,0.00
2022-11-01T04:45:52.916Z,0.00
2022-11-01T04:46:52.934Z,0.00
2022-11-01T04:47:52.933Z,0.00
2022-11-01T04:48:52.935Z,0.00
2022-11-01T04:49:52.947Z,0.00
2022-11-01T04:50:52.915Z,0.00
2022-11-01T04:51:52.936Z,0.00
2022-11-01T04:52:52.918Z,0.00
2022-11-01T04:53:52.919Z,0.00
2022-11-01T04:54:52.929Z,0.00
2022-11-01T04:55:52.912Z,0.00
2022-11-01T04:56:52.933Z,0.00
2022-11-01T04:57:52.928Z,0.00
2022-11-01T04:58:52.929Z,0.00
2022-11-01T04:59:52.915Z,0.00
2022-11-01T05:00:52.965Z,0.00
2022-11-01T05:01:53.020Z,0.00
2022-11-01T05:02:52.926Z,0.00
2022-11-01T05:03:52.913Z,0.00
2022-11-01T05:04:52.933Z,0.00
2022-11-01T05:05:52.917Z,0.00
2022-11-01T05:06:52.937Z,0.00
2022-11-01T05:07:52.925Z,0.00
2022-11-01T05:08:52.922Z,0.00
2022-11-01T05:09:52.925Z,0.00
2022-11-01T05:10:52.902Z,0.00
2022-11-01T05:11:52.920Z,0.00
2022-11-01T05:12:52.923Z,0.00
2022-11-01T05:13:52.901Z,0.00
2022-11-01T05:14:56.695Z,0.00
2022-11-01T05:16:17.964Z,0.00
2022-11-01T05:16:52.897Z,0.00
2022-11-01T05:17:52.923Z,0.00
2022-11-01T05:18:52.908Z,0.00
2022-11-01T05:19:52.917Z,0.00
2022-11-01T05:20:52.914Z,0.00
2022-11-01T05:21:52.952Z,0.00
2022-11-01T05:22:52.909Z,0.00
2022-11-01T05:23:52.914Z,0.00
2022-11-01T05:24:52.920Z,0.00
2022-11-01T05:25:52.906Z,0.00
2022-11-01T05:26:52.894Z,0.00
2022-11-01T05:27:52.902Z,0.00
2022-11-01T05:28:52.925Z,0.00
2022-11-01T05:29:52.915Z,0.00
2022-11-01T05:30:52.902Z,0.00
2022-11-01T05:31:52.898Z,0.00
2022-11-01T05:32:52.892Z,0.00
2022-11-01T05:33:52.906Z,0.00
2022-11-01T05:34:52.913Z,0.00
2022-11-01T05:35:52.904Z,0.00
2022-11-01T05:36:52.912Z,0.00
2022-11-01T05:37:52.912Z,0.00
2022-11-01T05:38:52.903Z,0.00
2022-11-01T05:39:52.927Z,0.00
2022-11-01T05:40:52.889Z,0.00
2022-11-01T05:41:53.824Z,0.00
2022-11-01T05:42:52.889Z,0.00
2022-11-01T05:43:52.891Z,4.00
2022-11-01T05:44:52.899Z,0.00
2022-11-01T05:45:53.027Z,0.00
2022-11-01T05:46:52.897Z,0.00
2022-11-01T05:47:52.948Z,4.00
2022-11-01T05:48:52.905Z,4.00
2022-11-01T05:49:52.900Z,0.00
2022-11-01T05:50:53.742Z,4.00
2022-11-01T05:51:52.902Z,4.00
2022-11-01T05:52:52.905Z,4.00
2022-11-01T05:53:52.885Z,4.00
2022-11-01T05:54:52.889Z,4.00
2022-11-01T05:55:53.000Z,4.00
2022-11-01T05:56:52.937Z,8.00
2022-11-01T05:57:53.742Z,8.00
2022-11-01T05:58:52.969Z,8.00
2022-11-01T05:59:53.011Z,8.00
2022-11-01T06:00:52.962Z,12.00
2022-11-01T06:01:52.975Z,12.00
2022-11-01T06:02:52.888Z,12.00
2022-11-01T06:03:52.890Z,12.00
2022-11-01T06:04:52.875Z,12.00
2022-11-01T06:05:52.883Z,12.00
2022-11-01T06:06:52.890Z,12.00
2022-11-01T06:07:52.885Z,16.00
2022-11-01T06:08:52.900Z,16.00
2022-11-01T06:09:52.917Z,20.00
2022-11-01T06:10:52.878Z,20.00
2022-11-01T06:11:52.879Z,24.00
2022-11-01T06:12:52.908Z,28.00
2022-11-01T06:13:52.874Z,32.00
2022-11-01T06:14:52.887Z,32.00
2022-11-01T06:15:52.882Z,32.00
2022-11-01T06:16:52.895Z,36.00
2022-11-01T06:17:52.866Z,44.00
2022-11-01T06:18:52.912Z,48.00
2022-11-01T06:19:52.874Z,52.00
2022-11-01T06:20:52.870Z,52.00
2022-11-01T06:21:52.875Z,64.00
2022-11-01T06:22:52.886Z,64.00
2022-11-01T06:23:52.871Z,72.00
2022-11-01T06:24:52.869Z,72.00
2022-11-01T06:25:52.873Z,76.00
2022-11-01T06:26:52.880Z,84.00
2022-11-01T06:27:52.904Z,88.00
2022-11-01T06:28:52.894Z,96.00
2022-11-01T06:29:52.870Z,96.00
2022-11-01T06:30:52.940Z,104.00
2022-11-01T06:31:52.855Z,104.00
2022-11-01T06:32:52.865Z,112.00
2022-11-01T06:33:52.880Z,116.00
2022-11-01T06:34:52.870Z,116.00
2022-11-01T06:35:52.864Z,116.00
2022-11-01T06:36:52.854Z,116.00
2022-11-01T06:37:52.863Z,124.00
2022-11-01T06:38:52.878Z,128.00
2022-11-01T06:39:52.927Z,136.00
2022-11-01T06:40:52.874Z,144.00
2022-11-01T06:41:52.939Z,140.00
2022-11-01T06:42:52.854Z,144.00
2022-11-01T06:43:52.872Z,144.00
2022-11-01T06:44:53.191Z,148.00
2022-11-01T06:47:32.809Z,148.00
2022-11-01T06:48:32.782Z,148.00
2022-11-01T06:49:32.794Z,152.00
2022-11-01T06:50:32.763Z,152.00
2022-11-01T06:51:32.772Z,156.00
2022-11-01T06:52:32.756Z,156.00
2022-11-01T06:53:32.774Z,156.00
2022-11-01T06:57:51.094Z,156.00
2022-11-01T06:58:59.995Z,156.00
2022-11-01T06:59:50.421Z,152.00
2022-11-01T07:00:50.445Z,156.00
2022-11-01T07:01:50.440Z,156.00
2022-11-01T07:02:50.420Z,160.00
2022-11-01T07:03:50.320Z,156.00
2022-11-01T07:04:50.307Z,156.00
2022-11-01T07:05:50.314Z,156.00
2022-11-01T07:06:50.345Z,156.00
2022-11-01T07:07:50.308Z,156.00
2022-11-01T07:08:50.296Z,156.00
2022-11-01T07:09:50.307Z,152.00
2022-11-01T07:10:50.321Z,152.00
2022-11-01T07:11:50.305Z,148.00
2022-11-01T07:12:50.294Z,144.00
2022-11-01T07:13:50.305Z,136.00
2022-11-01T07:14:50.298Z,128.00
2022-11-01T07:15:50.303Z,120.00
2022-11-01T07:16:50.313Z,112.00
2022-11-01T07:17:50.301Z,112.00
2022-11-01T07:18:50.301Z,108.00
2022-11-01T07:19:50.300Z,108.00
2022-11-01T07:20:50.309Z,120.00
2022-11-01T07:21:50.285Z,132.00
2022-11-01T07:22:50.306Z,144.00
2022-11-01T07:23:50.305Z,156.00
2022-11-01T07:24:50.291Z,184.00
2022-11-01T07:25:50.300Z,204.00
2022-11-01T07:26:50.287Z,224.00
2022-11-01T07:27:50.306Z,240.00
2022-11-01T07:28:50.289Z,260.00
2022-11-01T07:29:50.292Z,280.00
2022-11-01T07:30:50.303Z,316.00
2022-11-01T07:31:50.302Z,352.00
2022-11-01T07:32:50.301Z,376.00
2022-11-01T07:33:50.290Z,388.00
2022-11-01T07:34:50.284Z,400.00
2022-11-01T07:35:50.298Z,404.00
2022-11-01T07:36:50.292Z,400.00
2022-11-01T07:37:50.295Z,392.00
2022-11-01T07:38:50.275Z,392.00
2022-11-01T07:39:50.292Z,392.00
2022-11-01T07:40:50.284Z,400.00
2022-11-01T07:41:50.300Z,396.00
2022-11-01T07:42:50.280Z,404.00
2022-11-01T07:43:50.300Z,416.00
2022-11-01T07:44:50.274Z,452.00
2022-11-01T07:45:50.288Z,528.00
2022-11-01T07:46:50.283Z,548.00
2022-11-01T07:47:50.295Z,488.00
2022-11-01T07:48:50.302Z,512.00
2022-11-01T07:49:50.298Z,464.00
2022-11-01T07:50:50.278Z,424.00
2022-11-01T07:51:50.288Z,448.00
2022-11-01T07:52:50.270Z,444.00
2022-11-01T07:53:50.420Z,452.00
2022-11-01T07:54:50.287Z,468.00
2022-11-01T07:55:50.282Z,476.00
2022-11-01T07:56:50.288Z,484.00
2022-11-01T07:57:50.286Z,488.00
2022-11-01T07:58:50.268Z,484.00
2022-11-01T07:59:50.295Z,484.00
2022-11-01T08:00:50.290Z,488.00
2022-11-01T08:01:50.444Z,500.00
2022-11-01T08:02:50.264Z,520.00
2022-11-01T08:03:50.298Z,552.00
2022-11-01T08:04:50.295Z,596.00
2022-11-01T08:05:50.293Z,644.00
2022-11-01T08:06:52.188Z,688.00
2022-11-01T08:07:50.269Z,748.00
2022-11-01T08:08:50.282Z,808.00
2022-11-01T08:09:50.267Z,880.00
2022-11-01T08:10:50.312Z,1004.00
2022-11-01T08:11:50.274Z,1056.00
2022-11-01T08:12:50.287Z,1160.00
2022-11-01T08:13:50.276Z,1180.00
2022-11-01T08:14:50.267Z,1180.00
2022-11-01T08:15:50.277Z,1168.00
2022-11-01T08:16:50.275Z,1220.00
2022-11-01T08:17:50.265Z,1236.00
2022-11-01T08:18:50.272Z,1212.00
2022-11-01T08:19:50.291Z,1208.00
2022-11-01T08:20:50.282Z,1184.00
2022-11-01T08:21:50.274Z,1168.00
2022-11-01T08:22:50.279Z,1068.00
2022-11-01T08:23:50.287Z,1132.00
2022-11-01T08:24:50.262Z,1172.00
2022-11-01T08:25:50.258Z,1144.00
2022-11-01T08:26:50.283Z,1124.00
2022-11-01T08:27:50.270Z,1228.00
2022-11-01T08:28:50.268Z,1336.00
2022-11-01T08:29:50.280Z,1400.00
2022-11-01T08:30:50.268Z,1340.00
2022-11-01T08:31:50.264Z,1764.00
2022-11-01T08:32:50.285Z,1864.00
2022-11-01T08:33:50.277Z,1812.00
2022-11-01T08:34:50.287Z,1556.00
2022-11-01T08:35:50.977Z,1644.00
2022-11-01T08:36:50.270Z,1816.00
2022-11-01T08:37:50.262Z,1676.00
2022-11-01T08:38:50.288Z,1592.00
2022-11-01T08:39:50.266Z,1548.00
2022-11-01T08:40:50.255Z,1516.00
2022-11-01T08:41:50.265Z,1416.00
2022-11-01T08:42:50.256Z,1436.00
2022-11-01T08:43:50.292Z,1344.00
2022-11-01T08:44:50.265Z,1372.00
2022-11-01T08:45:50.280Z,1324.00
2022-11-01T08:46:50.258Z,1452.00
2022-11-01T08:47:50.254Z,1352.00
2022-11-01T08:48:50.269Z,1276.00
2022-11-01T08:49:50.269Z,1208.00
2022-11-01T08:50:50.256Z,1224.00
2022-11-01T08:51:50.246Z,1244.00
2022-11-01T08:52:50.264Z,1292.00
2022-11-01T08:53:50.275Z,1224.00
2022-11-01T08:54:50.274Z,1232.00
2022-11-01T08:55:50.282Z,1312.00
2022-11-01T08:56:50.261Z,1380.00
2022-11-01T08:57:50.267Z,1468.00
2022-11-01T08:58:50.252Z,1564.00
2022-11-01T08:59:50.286Z,1620.00
2022-11-01T09:00:50.310Z,1648.00
2022-11-01T09:01:50.415Z,1764.00
2022-11-01T09:02:50.260Z,1732.00
2022-11-01T09:03:50.256Z,1660.00
2022-11-01T09:04:50.260Z,1580.00
2022-11-01T09:05:50.302Z,1736.00
2022-11-01T09:06:50.268Z,1796.00
2022-11-01T09:07:50.254Z,1956.00
2022-11-01T09:08:50.270Z,1928.00
2022-11-01T09:09:50.291Z,2032.00
2022-11-01T09:10:50.267Z,2424.00
2022-11-01T09:11:50.294Z,2496.00
2022-11-01T09:12:50.298Z,2696.00
2022-11-01T09:13:50.278Z,2304.00
2022-11-01T09:14:50.270Z,2196.00
2022-11-01T09:15:50.265Z,2220.00
2022-11-01T09:16:50.285Z,2520.00
2022-11-01T09:17:50.287Z,2860.00
2022-11-01T09:18:50.269Z,2592.00
2022-11-01T09:19:50.278Z,2488.00
2022-11-01T09:20:50.270Z,1916.00
2022-11-01T09:21:50.277Z,1572.00
2022-11-01T09:22:50.284Z,1496.00
2022-11-01T09:23:50.280Z,1492.00
2022-11-01T09:24:50.268Z,1548.00
2022-11-01T09:25:50.269Z,1516.00
2022-11-01T09:26:50.274Z,1644.00
2022-11-01T09:27:50.306Z,1112.00
2022-11-01T09:28:50.276Z,1104.00
2022-11-01T09:29:51.939Z,1220.00
2022-11-01T09:31:01.453Z,1428.00
2022-11-01T09:31:50.281Z,1168.00
2022-11-01T09:32:50.272Z,1044.00
2022-11-01T09:33:50.278Z,1116.00
2022-11-01T09:34:50.289Z,1272.00
2022-11-01T09:35:52.203Z,1496.00
2022-11-01T09:36:50.272Z,1584.00
2022-11-01T09:37:50.283Z,1564.00
2022-11-01T09:38:50.299Z,1508.00
2022-11-01T09:39:50.315Z,1432.00
2022-11-01T09:40:50.315Z,1204.00
2022-11-01T09:41:50.274Z,1052.00
2022-11-01T09:42:50.276Z,924.00
2022-11-01T09:43:50.291Z,996.00
2022-11-01T09:44:50.410Z,824.00
2022-11-01T09:45:50.325Z,792.00
2022-11-01T09:46:50.295Z,768.00
2022-11-01T09:47:50.297Z,700.00
2022-11-01T09:48:50.282Z,640.00
2022-11-01T09:49:50.315Z,580.00
2022-11-01T09:50:50.322Z,528.00
2022-11-01T09:51:50.304Z,504.00
2022-11-01T09:52:50.306Z,456.00
2022-11-01T09:53:50.302Z,420.00
2022-11-01T09:54:50.326Z,384.00
2022-11-01T09:55:50.307Z,376.00
2022-11-01T09:56:50.289Z,368.00
2022-11-01T09:57:50.310Z,356.00
2022-11-01T09:58:50.298Z,360.00
2022-11-01T09:59:50.302Z,352.00
2022-11-01T10:00:50.336Z,328.00
2022-11-01T10:01:50.393Z,304.00
2022-11-01T10:02:50.301Z,292.00
2022-11-01T10:03:50.339Z,288.00
2022-11-01T10:04:50.306Z,288.00
2022-11-01T10:05:50.315Z,296.00
2022-11-01T10:06:50.304Z,296.00
2022-11-01T10:07:50.309Z,308.00
2022-11-01T10:08:50.338Z,332.00
2022-11-01T10:09:50.316Z,356.00
2022-11-01T10:10:50.322Z,364.00
2022-11-01T10:11:50.327Z,372.00
2022-11-01T10:12:50.309Z,380.00
2022-11-01T10:13:50.326Z,404.00
2022-11-01T10:14:50.328Z,440.00
2022-11-01T10:15:50.317Z,468.00
2022-11-01T10:16:50.330Z,496.00
2022-11-01T10:17:52.437Z,532.00
2022-11-01T10:18:50.357Z,564.00
2022-11-01T10:19:50.305Z,592.00
2022-11-01T10:20:50.316Z,580.00
2022-11-01T10:21:50.323Z,540.00
2022-11-01T10:22:50.308Z,528.00
2022-11-01T10:23:50.310Z,512.00
2022-11-01T10:24:50.338Z,504.00
2022-11-01T10:25:50.337Z,500.00
2022-11-01T10:26:50.329Z,532.00
2022-11-01T10:27:50.330Z,572.00
2022-11-01T10:28:50.312Z,604.00
2022-11-01T10:29:50.327Z,584.00
2022-11-01T10:30:50.363Z,556.00
2022-11-01T10:31:50.330Z,556.00
2022-11-01T10:32:50.340Z,560.00
2022-11-01T10:33:50.328Z,552.00
2022-11-01T10:34:50.333Z,564.00
2022-11-01T10:35:50.337Z,596.00
2022-11-01T10:36:50.359Z,628.00
2022-11-01T10:38:04.006Z,640.00
2022-11-01T10:39:29.979Z,604.00
2022-11-01T10:39:55.668Z,544.00
2022-11-01T10:40:50.330Z,516.00
2022-11-01T10:41:50.330Z,508.00
2022-11-01T10:42:50.345Z,520.00
2022-11-01T10:43:50.341Z,540.00
2022-11-01T10:44:50.330Z,544.00
2022-11-01T10:45:50.329Z,524.00
2022-11-01T10:46:50.368Z,492.00
2022-11-01T10:47:50.338Z,496.00
2022-11-01T10:48:50.332Z,520.00
2022-11-01T10:50:05.265Z,564.00
2022-11-01T10:50:50.330Z,696.00
2022-11-01T10:51:50.343Z,792.00
2022-11-01T10:52:50.342Z,1040.00
2022-11-01T10:53:50.346Z,2556.00
2022-11-01T10:54:50.343Z,6232.00
2022-11-01T10:55:50.356Z,12688.00
2022-11-01T10:56:50.347Z,11776.00
2022-11-01T10:57:50.364Z,14560.00
2022-11-01T10:58:50.367Z,7588.00
2022-11-01T10:59:50.352Z,6712.00
2022-11-01T11:00:50.373Z,7852.00
2022-11-01T11:01:50.427Z,13036.00
2022-11-01T11:02:50.367Z,12824.00
2022-11-01T11:03:50.344Z,11104.00
2022-11-01T11:04:50.371Z,8968.00
2022-11-01T11:05:50.349Z,4788.00
2022-11-01T11:06:50.366Z,2664.00
2022-11-01T11:07:50.384Z,7152.00
2022-11-01T11:08:50.357Z,3000.00
2022-11-01T11:09:50.449Z,2040.00
2022-11-01T11:10:50.372Z,1408.00
2022-11-01T11:11:50.363Z,1388.00
2022-11-01T11:12:50.369Z,1384.00
2022-11-01T11:13:50.402Z,1292.00
2022-11-01T11:14:50.379Z,1212.00
2022-11-01T11:15:50.386Z,1220.00
2022-11-01T11:16:50.394Z,1352.00
2022-11-01T11:17:50.373Z,1112.00
2022-11-01T11:18:50.387Z,868.00
2022-11-01T11:19:50.404Z,656.00
2022-11-01T11:20:50.383Z,496.00
2022-11-01T11:21:50.456Z,372.00
2022-11-01T11:22:50.395Z,320.00
2022-11-01T11:23:50.415Z,300.00
2022-11-01T11:24:50.409Z,284.00
2022-11-01T11:25:50.433Z,276.00
2022-11-01T11:26:53.212Z,280.00
2022-11-01T11:27:50.397Z,324.00
2022-11-01T11:28:50.409Z,316.00
2022-11-01T11:29:50.424Z,276.00
2022-11-01T11:30:50.429Z,240.00
2022-11-01T11:31:50.423Z,216.00
2022-11-01T11:32:50.410Z,212.00
2022-11-01T11:33:50.411Z,228.00
2022-11-01T11:34:50.416Z,204.00
2022-11-01T11:35:50.425Z,172.00
2022-11-01T11:36:50.441Z,164.00
2022-11-01T11:37:50.414Z,164.00
2022-11-01T11:38:50.425Z,152.00
2022-11-01T11:39:50.428Z,144.00
2022-11-01T11:40:50.436Z,156.00
2022-11-01T11:41:50.439Z,152.00
2022-11-01T11:42:50.441Z,148.00
2022-11-01T11:43:50.447Z,136.00
2022-11-01T11:44:53.561Z,144.00
2022-11-01T11:45:50.436Z,152.00
2022-11-01T11:46:50.471Z,176.00
2022-11-01T11:47:50.449Z,200.00
2022-11-01T11:48:50.441Z,196.00
2022-11-01T11:49:50.445Z,188.00
2022-11-01T11:50:50.440Z,180.00
2022-11-01T11:51:50.442Z,172.00
2022-11-01T11:52:50.471Z,160.00
2022-11-01T11:53:50.453Z,160.00
2022-11-01T11:54:50.455Z,156.00
2022-11-01T11:55:50.465Z,160.00
2022-11-01T11:56:50.465Z,180.00
2022-11-01T11:57:50.482Z,204.00
2022-11-01T11:58:50.470Z,208.00
2022-11-01T11:59:50.465Z,228.00
2022-11-01T12:00:50.459Z,240.00
2022-11-01T12:01:50.579Z,240.00
2022-11-01T12:02:50.550Z,264.00
2022-11-01T12:03:50.483Z,292.00
2022-11-01T12:04:50.500Z,300.00
2022-11-01T12:05:50.479Z,324.00
2022-11-01T12:06:50.481Z,356.00
2022-11-01T12:07:50.492Z,380.00
2022-11-01T12:08:50.474Z,400.00
2022-11-01T12:09:50.473Z,436.00
2022-11-01T12:10:50.502Z,476.00
2022-11-01T12:11:50.481Z,504.00
2022-11-01T12:12:50.486Z,532.00
2022-11-01T12:13:50.501Z,552.00
2022-11-01T12:14:50.512Z,560.00
2022-11-01T12:15:50.481Z,564.00
2022-11-01T12:16:50.486Z,564.00
2022-11-01T12:17:50.500Z,568.00
2022-11-01T12:18:50.511Z,568.00
2022-11-01T12:19:50.502Z,560.00
2022-11-01T12:20:50.508Z,564.00
2022-11-01T12:21:50.495Z,576.00
2022-11-01T12:22:50.516Z,588.00
2022-11-01T12:23:50.494Z,592.00
2022-11-01T12:24:50.520Z,592.00
2022-11-01T12:25:50.527Z,600.00
2022-11-01T12:26:50.508Z,644.00
2022-11-01T12:27:50.504Z,680.00
2022-11-01T12:28:50.513Z,672.00
2022-11-01T12:29:50.520Z,640.00
2022-11-01T12:30:50.537Z,604.00
2022-11-01T12:31:50.520Z,572.00
2022-11-01T12:32:50.509Z,584.00
2022-11-01T12:33:50.529Z,616.00
2022-11-01T12:34:50.514Z,640.00
2022-11-01T12:35:50.520Z,644.00
2022-11-01T12:36:50.560Z,644.00
2022-11-01T12:37:50.548Z,632.00
2022-11-01T12:38:50.527Z,604.00
2022-11-01T12:39:50.532Z,548.00
2022-11-01T12:40:50.521Z,512.00
2022-11-01T12:41:50.542Z,500.00
2022-11-01T12:42:50.538Z,484.00
2022-11-01T12:43:50.557Z,464.00
2022-11-01T12:44:50.544Z,448.00
2022-11-01T12:45:50.554Z,420.00
2022-11-01T12:46:50.535Z,392.00
2022-11-01T12:47:50.541Z,368.00
2022-11-01T12:48:50.552Z,352.00
2022-11-01T12:49:50.551Z,332.00
2022-11-01T12:50:50.547Z,312.00
2022-11-01T12:51:50.554Z,304.00
2022-11-01T12:52:50.554Z,308.00
2022-11-01T12:53:50.575Z,304.00
2022-11-01T12:54:50.559Z,300.00